createdAt,value
2022-10-06T00:01:03.858Z,6.62
2022-10-06T00:03:31.626Z,6.35
2022-10-06T00:06:00.708Z,7.00
2022-10-06T00:08:28.790Z,6.68
2022-10-06T00:10:56.645Z,7.25
2022-10-06T00:13:24.993Z,7.05
2022-10-06T00:15:52.470Z,6.95
2022-10-06T00:18:20.149Z,6.68
2022-10-06T00:20:57.347Z,6.62
2022-10-06T00:23:25.224Z,6.12
2022-10-06T00:25:52.683Z,6.62
2022-10-06T00:28:20.380Z,7.20
2022-10-06T00:30:48.154Z,6.68
2022-10-06T00:33:17.391Z,6.30
2022-10-06T00:35:46.670Z,5.68
2022-10-06T00:38:16.009Z,5.82
2022-10-06T00:40:48.514Z,6.60
2022-10-06T00:43:54.461Z,6.22
2022-10-06T00:46:39.704Z,6.72
2022-10-06T00:49:17.900Z,6.07
2022-10-06T00:51:52.363Z,6.57
2022-10-06T00:54:20.007Z,6.30
2022-10-06T00:56:47.565Z,6.15
2022-10-06T00:59:17.414Z,6.12
2022-10-06T01:01:51.127Z,6.78
2022-10-06T01:04:18.626Z,6.47
2022-10-06T01:06:52.146Z,6.03
2022-10-06T01:09:20.298Z,6.53
2022-10-06T01:11:50.035Z,6.87
2022-10-06T01:14:19.772Z,5.93
2022-10-06T01:16:52.000Z,6.45
2022-10-06T01:19:30.604Z,6.68
2022-10-06T01:22:00.741Z,6.20
2022-10-06T01:24:28.650Z,6.97
2022-10-06T01:26:56.736Z,6.37
2022-10-06T01:29:24.936Z,6.18
2022-10-06T01:31:52.613Z,6.45
2022-10-06T01:34:20.038Z,6.07
2022-10-06T01:36:47.388Z,6.32
2022-10-06T01:39:15.119Z,7.03
2022-10-06T01:41:42.518Z,6.20
2022-10-06T01:44:09.986Z,6.85
2022-10-06T01:46:37.660Z,5.85
2022-10-06T01:49:05.043Z,7.00
2022-10-06T01:51:32.649Z,6.22
2022-10-06T01:54:00.255Z,6.97
2022-10-06T01:56:27.613Z,6.97
2022-10-06T01:58:54.982Z,6.85
2022-10-06T02:01:22.879Z,6.80
2022-10-06T02:03:50.538Z,6.80
2022-10-06T02:06:33.454Z,6.45
2022-10-06T02:09:01.262Z,5.97
2022-10-06T02:11:29.127Z,5.85
2022-10-06T02:13:56.502Z,6.55
2022-10-06T02:16:24.562Z,6.93
2022-10-06T02:18:51.937Z,6.82
2022-10-06T02:21:21.872Z,6.25
2022-10-06T02:23:49.388Z,6.82
2022-10-06T02:26:35.138Z,6.60
2022-10-06T02:29:02.980Z,6.62
2022-10-06T02:31:31.192Z,6.80
2022-10-06T02:33:59.094Z,6.82
2022-10-06T02:36:27.036Z,6.87
2022-10-06T02:38:54.607Z,6.87
2022-10-06T02:41:22.143Z,6.93
2022-10-06T02:43:49.838Z,6.40
2022-10-06T02:46:17.300Z,6.70
2022-10-06T02:48:45.312Z,6.50
2022-10-06T02:51:15.652Z,5.80
2022-10-06T02:53:44.489Z,6.32
2022-10-06T02:56:19.464Z,6.07
2022-10-06T02:58:50.730Z,7.03
2022-10-06T03:01:24.475Z,6.12
2022-10-06T03:03:52.957Z,6.40
2022-10-06T03:06:25.753Z,6.28
2022-10-06T03:08:57.490Z,6.22
2022-10-06T03:11:27.381Z,6.20
2022-10-06T03:13:55.322Z,6.12
2022-10-06T03:16:32.063Z,7.07
2022-10-06T03:19:00.945Z,6.37
2022-10-06T03:21:31.209Z,6.10
2022-10-06T03:23:59.130Z,6.05
2022-10-06T03:26:31.020Z,6.72
2022-10-06T03:29:00.396Z,6.55
2022-10-06T03:31:28.275Z,5.82
2022-10-06T03:33:56.791Z,6.45
2022-10-06T03:36:27.194Z,6.47
2022-10-06T03:38:55.031Z,6.75
2022-10-06T03:41:27.865Z,6.50
2022-10-06T03:43:56.829Z,6.70
2022-10-06T03:46:26.189Z,6.20
2022-10-06T03:48:53.917Z,6.60
2022-10-06T03:51:23.300Z,6.12
2022-10-06T03:53:52.259Z,6.55
2022-10-06T03:56:28.598Z,6.65
2022-10-06T03:59:04.042Z,6.68
2022-10-06T04:01:34.015Z,6.10
2022-10-06T04:04:02.533Z,6.20
2022-10-06T04:06:32.345Z,6.18
2022-10-06T04:09:00.427Z,6.75
2022-10-06T04:11:30.554Z,6.20
2022-10-06T04:14:00.612Z,6.32
2022-10-06T04:16:33.171Z,6.12
2022-10-06T04:19:03.860Z,5.55
2022-10-06T04:21:36.642Z,6.60
2022-10-06T04:24:06.182Z,5.90
2022-10-06T04:26:40.721Z,5.57
2022-10-06T04:29:08.136Z,6.97
2022-10-06T04:31:37.516Z,7.22
2022-10-06T04:34:06.400Z,6.72
2022-10-06T04:36:36.607Z,6.75
2022-10-06T04:39:05.708Z,6.65
2022-10-06T04:41:38.341Z,6.53
2022-10-06T04:44:06.905Z,6.53
2022-10-06T04:46:43.757Z,6.85
2022-10-06T04:49:19.147Z,7.28
2022-10-06T04:51:49.475Z,7.32
2022-10-06T04:54:18.666Z,6.40
2022-10-06T04:56:46.637Z,7.15
2022-10-06T04:59:15.466Z,6.60
2022-10-06T05:01:43.540Z,7.12
2022-10-06T05:04:11.251Z,7.62
2022-10-06T05:06:41.090Z,8.13
2022-10-06T05:09:11.917Z,7.50
2022-10-06T05:11:39.669Z,7.43
2022-10-06T05:14:07.925Z,7.75
2022-10-06T05:16:38.250Z,7.40
2022-10-06T05:19:06.023Z,8.23
2022-10-06T05:21:33.577Z,8.07
2022-10-06T05:24:02.883Z,8.30
2022-10-06T05:26:32.546Z,7.62
2022-10-06T05:29:00.897Z,7.55
2022-10-06T05:31:31.764Z,8.10
2022-10-06T05:33:59.833Z,8.50
2022-10-06T05:36:29.917Z,7.95
2022-10-06T05:38:58.199Z,9.18
2022-10-06T05:41:30.026Z,8.77
2022-10-06T05:43:59.575Z,8.77
2022-10-06T05:46:29.714Z,8.57
2022-10-06T05:48:58.834Z,8.27
2022-10-06T05:51:30.952Z,8.63
2022-10-06T05:53:59.373Z,9.48
2022-10-06T05:56:32.321Z,8.57
2022-10-06T05:59:00.764Z,12.88
2022-10-06T06:01:31.444Z,12.52
2022-10-06T06:04:04.003Z,11.07
2022-10-06T06:06:43.611Z,12.10
2022-10-06T06:09:19.830Z,12.13
2022-10-06T06:11:49.236Z,12.20
2022-10-06T06:14:19.772Z,11.70
2022-10-06T06:16:47.747Z,10.38
2022-10-06T06:19:15.378Z,11.43
2022-10-06T06:21:43.143Z,11.27
2022-10-06T06:24:10.806Z,11.30
2022-10-06T06:26:38.693Z,10.07
2022-10-06T06:29:06.517Z,10.80
2022-10-06T06:31:37.354Z,10.95
2022-10-06T06:34:07.049Z,11.43
2022-10-06T06:36:46.976Z,13.68
2022-10-06T06:39:15.420Z,13.05
2022-10-06T06:41:47.062Z,12.68
2022-10-06T06:44:15.006Z,13.20
2022-10-06T06:46:49.417Z,14.50
2022-10-06T06:49:20.519Z,12.98
2022-10-06T06:51:52.738Z,12.80
2022-10-06T06:54:20.610Z,12.02
2022-10-06T06:56:48.962Z,11.77
2022-10-06T06:59:17.916Z,12.57
2022-10-06T07:01:48.038Z,11.40
2022-10-06T07:04:16.987Z,14.55
2022-10-06T07:06:57.129Z,13.40
2022-10-06T07:09:28.716Z,13.38
2022-10-06T07:11:56.382Z,11.65
2022-10-06T07:14:24.461Z,13.23
2022-10-06T07:17:10.849Z,12.82
2022-10-06T07:19:47.594Z,12.50
2022-10-06T07:22:36.772Z,11.32
2022-10-06T07:25:12.113Z,11.30
2022-10-06T07:27:44.955Z,11.07
2022-10-06T07:30:20.338Z,12.23
2022-10-06T07:32:50.241Z,11.85
2022-10-06T07:35:20.153Z,10.88
2022-10-06T07:37:49.335Z,10.32
2022-10-06T07:40:17.374Z,10.48
2022-10-06T07:42:48.427Z,9.85
2022-10-06T07:45:37.907Z,9.68
2022-10-06T07:48:14.690Z,10.63
2022-10-06T07:50:44.468Z,9.43
2022-10-06T07:53:12.879Z,9.45
2022-10-06T07:55:42.226Z,9.95
2022-10-06T07:58:11.829Z,9.80
2022-10-06T08:00:40.184Z,9.52
2022-10-06T08:03:12.158Z,9.70
2022-10-06T08:05:39.559Z,9.63
2022-10-06T08:08:06.944Z,9.38
2022-10-06T08:10:34.566Z,9.18
2022-10-06T08:13:05.424Z,9.48
2022-10-06T08:15:33.812Z,8.80
2022-10-06T08:18:02.675Z,9.45
2022-10-06T08:20:31.889Z,9.45
2022-10-06T08:22:59.217Z,9.80
2022-10-06T08:25:26.816Z,8.60
2022-10-06T08:27:54.175Z,9.40
2022-10-06T08:30:27.055Z,8.77
2022-10-06T08:32:56.669Z,9.57
2022-10-06T08:35:24.006Z,9.15
2022-10-06T08:37:52.264Z,9.20
2022-10-06T08:40:20.102Z,9.77
2022-10-06T08:42:51.506Z,9.23
2022-10-06T08:45:26.788Z,9.27
2022-10-06T08:48:03.566Z,8.80
2022-10-06T08:50:38.532Z,7.72
2022-10-06T08:53:15.559Z,6.78
2022-10-06T08:55:53.921Z,7.57
2022-10-06T08:58:29.116Z,6.18
2022-10-06T09:01:03.051Z,6.60
2022-10-06T09:03:30.795Z,7.53
2022-10-06T09:06:08.965Z,7.55
2022-10-06T09:08:51.325Z,6.53
2022-10-06T09:11:33.842Z,7.28
2022-10-06T09:14:04.685Z,6.45
2022-10-06T09:16:37.202Z,7.05
2022-10-06T09:19:46.652Z,6.53
2022-10-06T09:22:18.880Z,6.57
2022-10-06T09:24:50.358Z,6.28
2022-10-06T09:27:21.384Z,5.95
2022-10-06T09:29:51.497Z,6.25
2022-10-06T09:32:21.099Z,6.28
2022-10-06T09:34:55.409Z,6.80
2022-10-06T09:37:23.406Z,5.75
2022-10-06T09:39:52.111Z,6.05
2022-10-06T09:42:21.126Z,4.60
2022-10-06T09:44:51.553Z,5.57
2022-10-06T09:47:35.492Z,5.15
2022-10-06T09:50:12.035Z,4.93
2022-10-06T09:52:44.455Z,5.57
2022-10-06T09:55:14.802Z,4.95
2022-10-06T09:57:50.699Z,5.12
2022-10-06T10:00:40.085Z,4.93
2022-10-06T10:03:09.713Z,4.68
2022-10-06T10:05:38.997Z,4.40
2022-10-06T10:08:27.341Z,4.57
2022-10-06T10:11:38.559Z,4.55
2022-10-06T10:14:16.981Z,4.68
2022-10-06T10:16:46.099Z,4.40
2022-10-06T10:19:34.394Z,3.55
2022-10-06T10:22:03.112Z,3.03
2022-10-06T10:24:47.590Z,2.60
2022-10-06T10:29:59.475Z,2.95
2022-10-06T10:32:55.089Z,2.60
2022-10-06T10:35:28.513Z,2.70
2022-10-06T10:38:18.647Z,2.65
2022-10-06T10:40:55.099Z,2.65
2022-10-06T10:43:31.699Z,2.50
2022-10-06T10:46:01.517Z,2.37
2022-10-06T10:48:34.260Z,2.50
2022-10-06T10:51:13.242Z,2.97
2022-10-06T10:54:00.314Z,2.70
2022-10-06T10:56:27.719Z,2.70
2022-10-06T10:59:21.406Z,2.70
2022-10-06T11:01:55.976Z,2.47
2022-10-06T11:04:23.729Z,2.22
2022-10-06T11:07:30.705Z,2.42
2022-10-06T11:10:11.702Z,2.60
2022-10-06T11:13:04.512Z,2.45
2022-10-06T11:15:57.590Z,2.58
2022-10-06T11:18:26.141Z,3.25
2022-10-06T11:21:06.081Z,2.87
2022-10-06T11:23:36.226Z,2.78
2022-10-06T11:26:28.737Z,3.03
2022-10-06T11:29:01.309Z,3.70
2022-10-06T11:31:42.960Z,3.35
2022-10-06T11:34:10.489Z,3.00
2022-10-06T11:36:47.102Z,3.15
2022-10-06T11:39:26.407Z,3.00
2022-10-06T11:42:12.848Z,2.87
2022-10-06T11:44:44.568Z,2.35
2022-10-06T11:47:20.804Z,2.58
2022-10-06T11:49:54.787Z,2.35
2022-10-06T11:52:22.279Z,2.30
2022-10-06T11:55:06.200Z,2.25
2022-10-06T11:57:34.184Z,1.98
2022-10-06T12:00:04.444Z,2.45
2022-10-06T12:02:42.283Z,3.00
2022-10-06T12:05:28.569Z,2.87
2022-10-06T12:07:57.683Z,2.92
2022-10-06T12:10:29.373Z,2.30
2022-10-06T12:14:44.193Z,2.15
2022-10-06T12:17:06.167Z,2.40
2022-10-06T12:19:38.702Z,3.10
2022-10-06T12:22:27.757Z,2.65
2022-10-06T12:25:01.494Z,3.03
2022-10-06T12:30:22.679Z,2.30
2022-10-06T12:32:58.200Z,2.62
2022-10-06T12:35:38.095Z,2.53
2022-10-06T12:38:09.223Z,3.00
2022-10-06T12:40:48.886Z,3.17
2022-10-06T12:43:19.718Z,2.95
2022-10-06T12:45:47.738Z,2.80
2022-10-06T12:48:26.924Z,2.80
2022-10-06T12:51:04.414Z,2.80
2022-10-06T12:54:19.670Z,2.62
2022-10-06T12:59:35.271Z,3.40
2022-10-06T13:02:05.383Z,2.92
2022-10-06T13:04:44.161Z,2.75
2022-10-06T13:07:14.579Z,3.20
2022-10-06T13:09:42.345Z,2.92
2022-10-06T13:12:36.628Z,3.00
2022-10-06T13:15:22.203Z,3.03
2022-10-06T13:18:09.752Z,3.15
2022-10-06T13:20:42.966Z,3.03
2022-10-06T13:23:33.233Z,2.62
2022-10-06T13:26:02.592Z,2.75
2022-10-06T13:28:33.018Z,2.25
2022-10-06T13:31:18.331Z,2.90
2022-10-06T13:33:47.215Z,3.15
2022-10-06T13:36:14.974Z,2.67
2022-10-06T13:38:42.733Z,2.85
2022-10-06T13:41:24.428Z,2.95
2022-10-06T13:44:04.349Z,2.70
2022-10-06T13:46:38.055Z,2.35
2022-10-06T13:49:17.593Z,2.00
2022-10-06T13:51:50.962Z,2.03
2022-10-06T13:54:24.798Z,2.05
2022-10-06T13:56:53.245Z,2.03
2022-10-06T13:59:33.781Z,2.30
2022-10-06T14:02:23.198Z,2.10
2022-10-06T14:05:22.854Z,2.05
2022-10-06T14:07:50.690Z,2.10
2022-10-06T14:10:31.482Z,2.00
2022-10-06T14:13:01.444Z,2.03
2022-10-06T14:15:32.043Z,1.80
2022-10-06T14:18:01.883Z,2.37
2022-10-06T14:20:48.576Z,1.80
2022-10-06T14:23:40.624Z,1.98
2022-10-06T14:26:11.183Z,1.92
2022-10-06T14:28:40.015Z,1.80
2022-10-06T14:31:12.002Z,1.70
2022-10-06T14:33:41.779Z,2.17
2022-10-06T14:36:18.265Z,3.85
2022-10-06T14:38:50.392Z,2.17
2022-10-06T14:41:24.852Z,2.20
2022-10-06T14:43:56.453Z,2.22
2022-10-06T14:46:25.465Z,2.15
2022-10-06T14:48:52.890Z,2.85
2022-10-06T14:51:20.698Z,2.70
2022-10-06T14:53:56.580Z,2.65
2022-10-06T14:56:26.060Z,3.15
2022-10-06T14:58:53.704Z,3.55
2022-10-06T15:01:23.431Z,3.42
2022-10-06T15:03:59.330Z,3.28
2022-10-06T15:06:46.263Z,3.08
2022-10-06T15:09:13.818Z,3.78
2022-10-06T15:11:41.625Z,3.85
2022-10-06T15:14:09.862Z,3.65
2022-10-06T15:16:40.554Z,5.60
2022-10-06T15:19:09.161Z,5.28
2022-10-06T15:21:39.797Z,4.82
2022-10-06T15:24:09.938Z,4.60
2022-10-06T15:26:56.206Z,3.80
2022-10-06T15:29:23.535Z,3.65
2022-10-06T15:31:54.968Z,3.50
2022-10-06T15:34:25.207Z,4.00
2022-10-06T15:36:53.955Z,3.70
2022-10-06T15:39:23.784Z,4.65
2022-10-06T15:41:52.368Z,4.95
2022-10-06T15:44:21.156Z,4.60
2022-10-06T15:46:53.866Z,4.22
2022-10-06T15:49:26.277Z,3.70
2022-10-06T15:51:56.582Z,3.70
2022-10-06T15:54:26.882Z,4.20
2022-10-06T15:56:58.721Z,4.50
2022-10-06T15:59:27.691Z,4.43
2022-10-06T16:01:58.361Z,4.28
2022-10-06T16:04:39.384Z,4.00
2022-10-06T16:07:12.782Z,4.37
2022-10-06T16:09:43.479Z,5.00
2022-10-06T16:12:16.589Z,5.05
2022-10-06T16:14:44.490Z,4.87
2022-10-06T16:17:12.788Z,4.57
2022-10-06T16:19:40.363Z,4.25
2022-10-06T16:22:12.544Z,4.72
2022-10-06T16:24:39.896Z,4.65
2022-10-06T16:27:10.897Z,4.60
2022-10-06T16:29:38.527Z,4.53
2022-10-06T16:32:05.864Z,4.90
2022-10-06T16:34:33.228Z,5.47
2022-10-06T16:37:00.830Z,4.93
2022-10-06T16:39:28.161Z,4.87
2022-10-06T16:41:55.512Z,4.85
2022-10-06T16:44:23.115Z,4.93
2022-10-06T16:46:50.535Z,4.93
2022-10-06T16:49:19.708Z,5.10
2022-10-06T16:51:47.298Z,5.30
2022-10-06T16:54:17.101Z,4.68
2022-10-06T16:56:46.965Z,5.40
2022-10-06T16:59:19.210Z,5.25
2022-10-06T17:01:47.608Z,5.12
2022-10-06T17:04:17.910Z,5.35
2022-10-06T17:06:53.388Z,6.12
2022-10-06T17:09:23.009Z,6.25
2022-10-06T17:11:55.648Z,5.78
2022-10-06T17:14:23.399Z,5.47
2022-10-06T17:16:52.686Z,7.32
2022-10-06T17:19:21.343Z,6.12
2022-10-06T17:21:54.071Z,6.85
2022-10-06T17:24:25.544Z,6.32
2022-10-06T17:26:53.198Z,6.90
2022-10-06T17:29:21.915Z,6.30
2022-10-06T17:31:53.320Z,6.20
2022-10-06T17:34:22.977Z,6.12
2022-10-06T17:36:52.387Z,6.55
2022-10-06T17:39:21.606Z,5.68
2022-10-06T17:41:51.460Z,5.85
2022-10-06T17:44:23.827Z,6.10
2022-10-06T17:46:53.922Z,5.78
2022-10-06T17:49:22.265Z,5.65
2022-10-06T17:51:51.430Z,6.10
2022-10-06T17:54:21.018Z,6.43
2022-10-06T17:56:50.404Z,6.40
2022-10-06T17:59:21.649Z,7.30
2022-10-06T18:01:51.980Z,6.65
2022-10-06T18:04:19.940Z,7.05
2022-10-06T18:06:47.675Z,7.28
2022-10-06T18:09:15.949Z,7.78
2022-10-06T18:11:48.176Z,8.02
2022-10-06T18:14:17.858Z,7.43
2022-10-06T18:16:56.614Z,7.43
2022-10-06T18:19:30.324Z,9.15
2022-10-06T18:22:01.445Z,9.90
2022-10-06T18:24:31.035Z,10.73
2022-10-06T18:27:00.305Z,10.38
2022-10-06T18:29:30.955Z,10.38
2022-10-06T18:37:37.089Z,13.25
2022-10-06T18:40:06.998Z,12.63
2022-10-06T18:42:34.871Z,12.98
2022-10-06T18:45:21.605Z,13.57
2022-10-06T18:48:07.617Z,13.00
2022-10-06T18:50:35.372Z,10.40
2022-10-06T18:53:04.618Z,10.20
2022-10-06T18:55:32.285Z,10.10
2022-10-06T18:57:59.953Z,9.48
2022-10-06T19:00:27.397Z,8.43
2022-10-06T19:02:56.822Z,8.65
2022-10-06T19:05:24.897Z,9.30
2022-10-06T19:07:54.013Z,8.45
2022-10-06T19:10:21.951Z,8.98
2022-10-06T19:12:50.145Z,8.95
2022-10-06T19:15:20.742Z,8.10
2022-10-06T19:17:50.033Z,8.50
2022-10-06T19:20:18.588Z,9.15
2022-10-06T19:22:48.027Z,8.18
2022-10-06T19:25:19.049Z,9.02
2022-10-06T19:27:47.195Z,7.75
2022-10-06T19:30:15.241Z,7.00
2022-10-06T19:32:43.131Z,7.40
2022-10-06T19:35:11.177Z,7.37
2022-10-06T19:37:39.786Z,7.00
2022-10-06T19:40:08.860Z,7.10
2022-10-06T19:42:48.456Z,6.82
2022-10-06T19:45:17.893Z,6.57
2022-10-06T19:47:46.413Z,8.38
2022-10-06T19:50:17.044Z,12.05
2022-10-06T19:52:45.669Z,11.35
2022-10-06T19:55:13.442Z,11.50
2022-10-06T19:57:41.371Z,11.18
2022-10-06T20:00:10.934Z,10.40
2022-10-06T20:02:42.723Z,10.43
2022-10-06T20:05:16.051Z,9.30
2022-10-06T20:07:45.449Z,9.77
2022-10-06T20:10:13.724Z,9.93
2022-10-06T20:12:43.926Z,10.85
2022-10-06T20:15:12.645Z,10.77
2022-10-06T20:17:42.433Z,9.90
2022-10-06T20:20:10.259Z,10.05
2022-10-06T20:22:37.615Z,9.07
2022-10-06T20:25:07.126Z,8.82
2022-10-06T20:27:34.540Z,7.05
2022-10-06T20:30:01.906Z,6.87
2022-10-06T20:32:30.169Z,7.82
2022-10-06T20:34:58.157Z,7.62
2022-10-06T20:37:25.493Z,8.13
2022-10-06T20:40:11.784Z,8.55
2022-10-06T20:42:44.618Z,8.13
2022-10-06T20:45:12.221Z,8.43
2022-10-06T20:47:39.559Z,8.77
2022-10-06T20:50:07.368Z,8.02
2022-10-06T20:52:34.980Z,7.70
2022-10-06T20:55:02.314Z,7.97
2022-10-06T20:57:33.740Z,8.18
2022-10-06T21:00:01.699Z,7.60
2022-10-06T21:02:29.273Z,6.45
2022-10-06T21:04:57.493Z,6.25
2022-10-06T21:07:25.291Z,6.82
2022-10-06T21:09:52.709Z,6.87
2022-10-06T21:12:20.657Z,6.03
2022-10-06T21:14:48.648Z,6.22
2022-10-06T21:17:16.060Z,6.20
2022-10-06T21:19:43.486Z,6.05
2022-10-06T21:22:11.164Z,6.57
2022-10-06T21:24:38.577Z,6.43
2022-10-06T21:27:06.002Z,6.20
2022-10-06T21:29:33.803Z,6.25
2022-10-06T21:32:01.344Z,6.32
2022-10-06T21:34:28.786Z,5.32
2022-10-06T21:36:56.699Z,6.37
2022-10-06T21:39:24.144Z,6.60
2022-10-06T21:41:51.545Z,6.12
2022-10-06T21:44:19.471Z,7.68
2022-10-06T21:46:47.907Z,7.28
2022-10-06T21:49:17.840Z,7.30
2022-10-06T21:51:47.509Z,7.75
2022-10-06T21:54:15.243Z,6.35
2022-10-06T21:56:42.856Z,6.32
2022-10-06T21:59:11.360Z,6.50
2022-10-06T22:01:40.676Z,6.35
2022-10-06T22:04:08.499Z,6.75
2022-10-06T22:06:37.051Z,7.62
2022-10-06T22:09:06.719Z,7.75
2022-10-06T22:11:36.612Z,7.45
2022-10-06T22:14:06.196Z,7.35
2022-10-06T22:16:35.369Z,7.03
2022-10-06T22:19:05.102Z,6.97
2022-10-06T22:21:34.666Z,7.03
2022-10-06T22:24:05.251Z,7.03
2022-10-06T22:26:34.480Z,7.32
2022-10-06T22:29:02.152Z,7.28
2022-10-06T22:31:31.068Z,6.75
2022-10-06T22:34:00.334Z,6.90
2022-10-06T22:36:28.748Z,6.75
2022-10-06T22:38:56.577Z,6.62
2022-10-06T22:41:24.307Z,6.32
2022-10-06T22:43:57.791Z,6.55
2022-10-06T22:46:36.128Z,5.43
2022-10-06T22:49:04.783Z,6.45
2022-10-06T22:51:33.622Z,6.35
2022-10-06T22:54:01.460Z,6.30
2022-10-06T22:56:31.726Z,6.43
2022-10-06T22:59:00.217Z,6.05
2022-10-06T23:01:29.196Z,7.20
2022-10-06T23:03:57.445Z,6.78
2022-10-06T23:06:25.611Z,7.05
2022-10-06T23:08:53.088Z,6.90
2022-10-06T23:11:21.720Z,6.20
2022-10-06T23:13:50.595Z,6.65
2022-10-06T23:16:20.291Z,6.00
2022-10-06T23:18:48.651Z,6.18
2022-10-06T23:21:21.977Z,6.75
2022-10-06T23:23:59.956Z,6.17
2022-10-06T23:26:27.896Z,5.95
2022-10-06T23:28:58.426Z,5.80
2022-10-06T23:31:26.457Z,5.80
2022-10-06T23:33:54.993Z,6.47
2022-10-06T23:36:22.782Z,5.93
2022-10-06T23:38:50.278Z,5.87
2022-10-06T23:41:18.065Z,5.93
2022-10-06T23:43:46.307Z,6.40
2022-10-06T23:46:14.015Z,6.90
2022-10-06T23:48:41.631Z,6.18
2022-10-06T23:51:12.037Z,5.97
2022-10-06T23:53:39.950Z,6.22
2022-10-06T23:56:07.863Z,6.20
2022-10-06T23:58:35.939Z,5.47
